createdAt,value
2022-08-27T00:00:10.265Z,20.58
2022-08-27T00:02:37.965Z,20.51
2022-08-27T00:05:05.577Z,20.48
2022-08-27T00:07:33.263Z,20.49
2022-08-27T00:10:01.176Z,20.46
2022-08-27T00:12:28.839Z,20.44
2022-08-27T00:14:56.512Z,20.41
2022-08-27T00:17:24.165Z,20.41
2022-08-27T00:19:54.361Z,20.38
2022-08-27T00:22:21.968Z,20.38
2022-08-27T00:24:49.627Z,20.34
2022-08-27T00:27:17.243Z,20.34
2022-08-27T00:29:45.289Z,20.34
2022-08-27T00:32:13.074Z,20.35
2022-08-27T00:34:40.969Z,20.32
2022-08-27T00:37:08.684Z,20.33
2022-08-27T00:39:37.384Z,20.35
2022-08-27T00:42:05.006Z,20.37
2022-08-27T00:44:32.684Z,20.35
2022-08-27T00:47:01.552Z,20.32
2022-08-27T00:49:29.970Z,20.28
2022-08-27T00:51:57.701Z,20.22
2022-08-27T00:54:26.444Z,20.17
2022-08-27T00:56:54.145Z,20.12
2022-08-27T00:59:22.315Z,20.08
2022-08-27T01:02:07.282Z,20.03
2022-08-27T01:04:35.004Z,19.95
2022-08-27T01:07:02.706Z,19.89
2022-08-27T01:09:30.804Z,19.85
2022-08-27T01:11:58.478Z,19.81
2022-08-27T01:14:26.245Z,19.76
2022-08-27T01:16:54.431Z,19.72
2022-08-27T01:19:23.519Z,19.69
2022-08-27T01:21:51.354Z,19.67
2022-08-27T01:24:19.092Z,19.63
2022-08-27T01:26:46.813Z,19.63
2022-08-27T01:29:14.905Z,19.58
2022-08-27T01:31:42.616Z,19.54
2022-08-27T01:34:10.350Z,19.50
2022-08-27T01:36:38.069Z,19.47
2022-08-27T01:39:06.521Z,19.40
2022-08-27T01:41:34.370Z,19.39
2022-08-27T01:44:02.342Z,19.39
2022-08-27T01:46:30.175Z,19.36
2022-08-27T01:48:58.400Z,19.32
2022-08-27T01:51:26.063Z,19.28
2022-08-27T01:53:54.112Z,19.25
2022-08-27T01:56:21.722Z,19.24
2022-08-27T01:58:49.732Z,19.24
2022-08-27T02:01:17.810Z,19.23
2022-08-27T02:03:47.512Z,19.20
2022-08-27T02:06:15.114Z,19.15
2022-08-27T02:08:44.243Z,19.13
2022-08-27T02:11:11.827Z,19.10
2022-08-27T02:13:40.099Z,19.06
2022-08-27T02:16:07.880Z,19.04
2022-08-27T02:18:37.137Z,19.03
2022-08-27T02:21:05.033Z,19.02
2022-08-27T02:23:32.701Z,19.03
2022-08-27T02:26:01.047Z,19.03
2022-08-27T02:28:29.055Z,19.00
2022-08-27T02:30:56.747Z,18.99
2022-08-27T02:33:24.367Z,18.99
2022-08-27T02:35:52.086Z,18.98
2022-08-27T02:38:20.704Z,18.99
2022-08-27T02:40:48.803Z,18.98
2022-08-27T02:43:16.512Z,18.98
2022-08-27T02:45:53.217Z,19.02
2022-08-27T02:48:21.541Z,19.04
2022-08-27T02:50:49.142Z,19.03
2022-08-27T02:53:16.814Z,19.00
2022-08-27T02:55:44.880Z,18.99
2022-08-27T02:58:15.609Z,18.95
2022-08-27T03:00:43.263Z,18.93
2022-08-27T03:03:11.146Z,18.93
2022-08-27T03:05:38.732Z,18.93
2022-08-27T03:08:06.437Z,18.93
2022-08-27T03:10:34.049Z,18.90
2022-08-27T03:13:01.703Z,18.87
2022-08-27T03:15:29.300Z,18.84
2022-08-27T03:18:14.794Z,18.84
2022-08-27T03:20:42.411Z,18.85
2022-08-27T03:23:10.193Z,18.86
2022-08-27T03:25:37.900Z,18.82
2022-08-27T03:28:13.472Z,18.81
2022-08-27T03:30:52.020Z,18.79
2022-08-27T03:33:19.887Z,18.79
2022-08-27T03:35:51.547Z,18.80
2022-08-27T03:38:19.646Z,18.78
2022-08-27T03:40:47.787Z,18.79
2022-08-27T03:43:15.419Z,18.78
2022-08-27T03:45:50.368Z,18.78
2022-08-27T03:48:29.738Z,18.81
2022-08-27T03:50:57.936Z,18.83
2022-08-27T03:53:26.130Z,18.82
2022-08-27T03:55:53.840Z,18.78
2022-08-27T03:58:21.496Z,18.76
2022-08-27T04:00:49.452Z,18.75
2022-08-27T04:03:17.221Z,18.76
2022-08-27T04:05:45.255Z,18.76
2022-08-27T04:08:13.538Z,18.77
2022-08-27T04:10:41.658Z,18.76
2022-08-27T04:13:09.286Z,18.77
2022-08-27T04:15:40.695Z,18.78
2022-08-27T04:18:08.679Z,18.81
2022-08-27T04:20:36.720Z,18.80
2022-08-27T04:23:04.387Z,18.77
2022-08-27T04:25:32.046Z,18.76
2022-08-27T04:27:59.697Z,18.72
2022-08-27T04:30:27.906Z,18.70
2022-08-27T04:32:55.525Z,18.69
2022-08-27T04:35:23.430Z,18.67
2022-08-27T04:37:51.186Z,18.67
2022-08-27T04:40:19.381Z,18.67
2022-08-27T04:42:47.166Z,18.65
2022-08-27T04:45:14.785Z,18.67
2022-08-27T04:47:42.432Z,18.67
2022-08-27T04:50:10.572Z,18.68
2022-08-27T04:52:41.049Z,18.66
2022-08-27T04:55:09.228Z,18.64
2022-08-27T04:57:38.174Z,18.61
2022-08-27T05:00:07.149Z,18.58
2022-08-27T05:02:34.875Z,18.56
2022-08-27T05:05:02.574Z,18.56
2022-08-27T05:07:30.293Z,18.57
2022-08-27T05:09:58.467Z,18.54
2022-08-27T05:12:26.130Z,18.54
2022-08-27T05:14:53.814Z,18.53
2022-08-27T05:17:22.012Z,18.51
2022-08-27T05:19:50.173Z,18.49
2022-08-27T05:22:17.825Z,18.50
2022-08-27T05:24:50.275Z,18.50
2022-08-27T05:27:18.229Z,18.50
2022-08-27T05:29:47.011Z,18.50
2022-08-27T05:32:14.804Z,18.53
2022-08-27T05:34:42.461Z,18.53
2022-08-27T05:37:10.093Z,18.56
2022-08-27T05:39:38.131Z,18.54
2022-08-27T05:42:06.014Z,18.53
2022-08-27T05:44:41.865Z,18.51
2022-08-27T05:47:10.228Z,18.51
2022-08-27T05:49:38.784Z,18.52
2022-08-27T05:52:06.464Z,18.51
2022-08-27T05:54:34.050Z,18.54
2022-08-27T05:57:01.708Z,18.56
2022-08-27T05:59:47.030Z,18.56
2022-08-27T06:02:14.740Z,18.58
2022-08-27T06:04:42.408Z,18.59
2022-08-27T06:07:10.750Z,18.60
2022-08-27T06:09:38.736Z,18.59
2022-08-27T06:12:06.333Z,18.57
2022-08-27T06:14:34.028Z,18.57
2022-08-27T06:17:01.646Z,18.60
2022-08-27T06:19:29.804Z,18.61
2022-08-27T06:22:00.925Z,18.67
2022-08-27T06:24:39.165Z,18.68
2022-08-27T06:27:07.374Z,18.64
2022-08-27T06:29:35.359Z,18.61
2022-08-27T06:32:03.067Z,18.60
2022-08-27T06:34:30.790Z,18.59
2022-08-27T06:36:59.833Z,18.60
2022-08-27T06:39:28.022Z,18.60
2022-08-27T06:41:58.633Z,18.58
2022-08-27T06:44:26.487Z,18.59
2022-08-27T06:46:54.093Z,18.61
2022-08-27T06:49:23.428Z,18.63
2022-08-27T06:51:51.105Z,18.65
2022-08-27T06:54:20.148Z,18.64
2022-08-27T06:56:49.645Z,18.66
2022-08-27T06:59:17.725Z,18.68
2022-08-27T07:01:45.547Z,18.65
2022-08-27T07:04:13.301Z,18.66
2022-08-27T07:06:41.367Z,18.67
2022-08-27T07:09:09.629Z,18.70
2022-08-27T07:11:37.603Z,18.77
2022-08-27T07:14:06.158Z,18.82
2022-08-27T07:16:34.007Z,18.87
2022-08-27T07:19:04.040Z,18.91
2022-08-27T07:21:32.021Z,18.95
2022-08-27T07:24:04.965Z,18.98
2022-08-27T07:26:33.164Z,18.99
2022-08-27T07:29:01.181Z,18.99
2022-08-27T07:31:28.981Z,18.99
2022-08-27T07:33:56.667Z,19.01
2022-08-27T07:36:24.604Z,19.04
2022-08-27T07:39:01.414Z,19.08
2022-08-27T07:41:31.209Z,19.16
2022-08-27T07:44:13.518Z,19.23
2022-08-27T07:46:47.015Z,19.29
2022-08-27T07:49:15.433Z,19.35
2022-08-27T07:51:43.117Z,19.41
2022-08-27T07:54:10.976Z,19.51
2022-08-27T07:56:38.644Z,19.55
2022-08-27T07:59:06.342Z,19.62
2022-08-27T08:01:34.068Z,19.70
2022-08-27T08:04:01.834Z,19.75
2022-08-27T08:06:30.189Z,19.80
2022-08-27T08:08:57.872Z,19.84
2022-08-27T08:11:25.465Z,19.88
2022-08-27T08:13:53.130Z,19.93
2022-08-27T08:16:21.311Z,19.98
2022-08-27T08:18:49.009Z,20.05
2022-08-27T08:21:16.664Z,20.14
2022-08-27T08:23:44.354Z,20.22
2022-08-27T08:26:12.462Z,20.30
2022-08-27T08:28:40.247Z,20.33
2022-08-27T08:31:08.403Z,20.32
2022-08-27T08:33:36.074Z,20.27
2022-08-27T08:36:03.767Z,20.22
2022-08-27T08:38:31.424Z,20.22
2022-08-27T08:40:59.132Z,20.21
2022-08-27T08:43:26.844Z,20.21
2022-08-27T08:45:55.093Z,20.24
2022-08-27T08:48:22.817Z,20.23
2022-08-27T08:50:50.470Z,20.22
2022-08-27T08:53:20.212Z,20.17
2022-08-27T08:55:48.326Z,20.14
2022-08-27T08:58:16.005Z,20.14
2022-08-27T09:00:43.660Z,20.14
2022-08-27T09:03:11.410Z,20.14
2022-08-27T09:05:39.088Z,20.11
2022-08-27T09:08:30.877Z,20.05
2022-08-27T09:10:54.549Z,20.00
2022-08-27T09:13:22.296Z,19.94
2022-08-27T09:15:50.201Z,19.91
2022-08-27T09:18:18.521Z,19.91
2022-08-27T09:20:48.341Z,19.90
2022-08-27T09:23:16.450Z,19.86
2022-08-27T09:25:44.862Z,19.86
2022-08-27T09:28:32.778Z,19.88
2022-08-27T09:31:00.588Z,19.91
2022-08-27T09:33:28.406Z,19.93
2022-08-27T09:36:12.358Z,19.93
2022-08-27T09:38:40.356Z,19.94
2022-08-27T09:41:08.508Z,19.95
2022-08-27T09:43:37.129Z,19.96
2022-08-27T09:46:05.054Z,19.99
2022-08-27T09:48:32.744Z,19.98
2022-08-27T09:51:00.747Z,19.99
2022-08-27T09:53:28.443Z,20.01
2022-08-27T09:55:56.211Z,20.06
2022-08-27T09:58:23.871Z,20.12
2022-08-27T10:00:52.103Z,20.17
2022-08-27T10:03:19.893Z,20.20
2022-08-27T10:05:51.986Z,20.26
2022-08-27T10:08:19.978Z,20.32
2022-08-27T10:10:48.895Z,20.37
2022-08-27T10:13:16.587Z,20.46
2022-08-27T10:15:47.757Z,20.56
2022-08-27T10:18:17.875Z,20.65
2022-08-27T10:20:45.954Z,20.77
2022-08-27T10:23:13.807Z,20.87
2022-08-27T10:25:41.451Z,20.94
2022-08-27T10:28:09.326Z,20.97
2022-08-27T10:30:37.475Z,20.99
2022-08-27T10:33:05.559Z,21.01
2022-08-27T10:35:33.632Z,20.96
2022-08-27T10:38:01.426Z,20.97
2022-08-27T10:40:29.704Z,20.96
2022-08-27T10:42:57.948Z,20.93
2022-08-27T10:45:30.907Z,20.89
2022-08-27T10:47:59.399Z,20.87
2022-08-27T10:50:29.429Z,20.84
2022-08-27T10:52:57.170Z,20.84
2022-08-27T10:55:27.141Z,20.86
2022-08-27T10:58:00.377Z,20.88
2022-08-27T11:00:28.774Z,20.90
2022-08-27T11:02:56.516Z,20.89
2022-08-27T11:05:24.194Z,20.88
2022-08-27T11:07:52.726Z,20.91
2022-08-27T11:10:21.118Z,20.94
2022-08-27T11:12:48.892Z,20.98
2022-08-27T11:15:16.546Z,21.00
2022-08-27T11:17:44.561Z,21.00
2022-08-27T11:20:12.236Z,21.01
2022-08-27T11:22:39.914Z,21.04
2022-08-27T11:25:07.541Z,21.09
2022-08-27T11:27:36.009Z,21.12
2022-08-27T11:30:04.296Z,21.17
2022-08-27T11:32:31.968Z,21.26
2022-08-27T11:34:59.686Z,21.40
2022-08-27T11:37:27.372Z,21.56
2022-08-27T11:39:55.590Z,21.72
2022-08-27T11:42:23.326Z,21.87
2022-08-27T11:44:51.239Z,22.03
2022-08-27T11:47:18.930Z,22.19
2022-08-27T11:49:47.186Z,22.36
2022-08-27T11:52:15.368Z,22.60
2022-08-27T11:54:44.506Z,22.77
2022-08-27T11:57:12.149Z,22.91
2022-08-27T11:59:40.574Z,23.03
2022-08-27T12:02:08.263Z,23.17
2022-08-27T12:04:36.116Z,23.33
2022-08-27T12:07:03.876Z,23.43
2022-08-27T12:09:31.993Z,23.51
2022-08-27T12:11:59.666Z,23.52
2022-08-27T12:14:27.389Z,23.55
2022-08-27T12:16:55.016Z,23.57
2022-08-27T12:19:25.215Z,23.51
2022-08-27T12:21:52.901Z,23.43
2022-08-27T12:24:20.734Z,23.30
2022-08-27T12:26:48.490Z,23.17
2022-08-27T12:29:16.579Z,23.05
2022-08-27T12:31:44.324Z,22.99
2022-08-27T12:34:12.023Z,23.03
2022-08-27T12:36:40.193Z,23.07
2022-08-27T12:39:10.243Z,23.11
2022-08-27T12:41:43.949Z,23.16
2022-08-27T12:44:13.266Z,23.19
2022-08-27T12:46:41.082Z,23.23
2022-08-27T12:49:36.141Z,23.25
2022-08-27T12:51:56.448Z,23.32
2022-08-27T12:54:30.169Z,23.39
2022-08-27T12:56:58.397Z,23.43
2022-08-27T12:59:26.128Z,23.48
2022-08-27T13:01:53.936Z,23.54
2022-08-27T13:04:21.695Z,23.63
2022-08-27T13:06:49.504Z,23.67
2022-08-27T13:09:17.475Z,23.69
2022-08-27T13:11:45.345Z,23.71
2022-08-27T13:14:13.105Z,23.75
2022-08-27T13:16:40.857Z,23.76
2022-08-27T13:19:09.611Z,23.76
2022-08-27T13:21:37.243Z,23.79
2022-08-27T13:24:04.942Z,23.80
2022-08-27T13:26:34.236Z,23.82
2022-08-27T13:29:03.960Z,23.87
2022-08-27T13:31:31.712Z,23.99
2022-08-27T13:33:59.657Z,24.04
2022-08-27T13:36:27.318Z,24.05
2022-08-27T13:38:57.853Z,24.03
2022-08-27T13:41:25.591Z,24.00
2022-08-27T13:43:58.537Z,23.98
2022-08-27T13:46:27.225Z,23.89
2022-08-27T13:48:55.400Z,23.87
2022-08-27T13:51:23.155Z,23.87
2022-08-27T13:54:08.340Z,23.87
2022-08-27T13:56:36.679Z,23.92
2022-08-27T13:59:04.411Z,23.97
2022-08-27T14:01:33.034Z,24.07
2022-08-27T14:04:00.838Z,24.19
2022-08-27T14:06:32.952Z,24.25
2022-08-27T14:09:04.143Z,24.28
2022-08-27T14:11:32.049Z,24.29
2022-08-27T14:14:00.193Z,24.30
2022-08-27T14:16:28.317Z,24.30
2022-08-27T14:18:59.316Z,24.25
2022-08-27T14:21:27.352Z,24.21
2022-08-27T14:23:55.289Z,24.20
2022-08-27T14:26:23.044Z,24.18
2022-08-27T14:28:51.117Z,24.17
2022-08-27T14:31:18.987Z,24.15
2022-08-27T14:33:47.654Z,24.11
2022-08-27T14:36:15.412Z,24.06
2022-08-27T14:38:43.499Z,23.98
2022-08-27T14:41:11.175Z,23.89
2022-08-27T14:43:39.155Z,23.85
2022-08-27T14:46:08.190Z,23.89
2022-08-27T14:48:37.113Z,23.91
2022-08-27T14:51:04.814Z,23.92
2022-08-27T14:53:32.542Z,23.92
2022-08-27T14:56:01.917Z,23.92
2022-08-27T14:58:29.682Z,23.95
2022-08-27T15:00:57.937Z,24.05
2022-08-27T15:03:26.407Z,24.09
2022-08-27T15:05:54.985Z,24.15
2022-08-27T15:08:27.391Z,24.23
2022-08-27T15:10:57.309Z,24.36
2022-08-27T15:13:24.925Z,24.46
2022-08-27T15:15:53.123Z,24.55
2022-08-27T15:18:20.919Z,24.56
2022-08-27T15:20:48.916Z,24.56
2022-08-27T15:23:16.951Z,24.57
2022-08-27T15:25:45.395Z,24.58
2022-08-27T15:28:13.384Z,24.61
2022-08-27T15:30:41.426Z,24.61
2022-08-27T15:33:09.161Z,24.63
2022-08-27T15:35:36.847Z,24.59
2022-08-27T15:38:04.567Z,24.55
2022-08-27T15:40:34.807Z,24.51
2022-08-27T15:43:03.367Z,24.50
2022-08-27T15:45:31.391Z,24.45
2022-08-27T15:47:59.467Z,24.38
2022-08-27T15:50:27.177Z,24.33
2022-08-27T15:52:55.041Z,24.30
2022-08-27T15:55:22.858Z,24.27
2022-08-27T15:57:51.021Z,24.22
2022-08-27T16:00:18.831Z,24.15
2022-08-27T16:02:46.657Z,24.10
2022-08-27T16:05:14.378Z,24.04
2022-08-27T16:07:42.495Z,23.95
2022-08-27T16:10:10.085Z,23.87
2022-08-27T16:12:37.999Z,23.78
2022-08-27T16:15:05.929Z,23.71
2022-08-27T16:17:34.538Z,23.62
2022-08-27T16:20:02.210Z,23.54
2022-08-27T16:22:29.919Z,23.48
2022-08-27T16:24:57.588Z,23.38
2022-08-27T16:27:25.560Z,23.32
2022-08-27T16:29:54.133Z,23.23
2022-08-27T16:32:23.020Z,23.16
2022-08-27T16:34:55.528Z,23.10
2022-08-27T16:37:23.774Z,23.03
2022-08-27T16:39:51.967Z,22.96
2022-08-27T16:42:19.646Z,22.88
2022-08-27T16:44:47.351Z,22.81
2022-08-27T16:47:15.134Z,22.78
2022-08-27T16:50:00.707Z,22.73
2022-08-27T16:52:28.366Z,22.69
2022-08-27T16:54:57.051Z,22.68
2022-08-27T16:57:25.942Z,22.63
2022-08-27T16:59:55.115Z,22.63
2022-08-27T17:02:22.938Z,22.62
2022-08-27T17:05:07.216Z,22.60
2022-08-27T17:07:41.671Z,22.57
2022-08-27T17:10:13.835Z,22.54
2022-08-27T17:12:41.508Z,22.50
2022-08-27T17:15:09.813Z,22.45
2022-08-27T17:17:39.008Z,22.40
2022-08-27T17:20:06.732Z,22.35
2022-08-27T17:22:35.097Z,22.31
2022-08-27T17:25:03.328Z,22.28
2022-08-27T17:27:31.195Z,22.24
2022-08-27T17:29:58.932Z,22.21
2022-08-27T17:32:26.684Z,22.19
2022-08-27T17:34:54.341Z,22.14
2022-08-27T17:37:22.237Z,22.10
2022-08-27T17:39:50.256Z,22.06
2022-08-27T17:42:18.005Z,22.02
2022-08-27T17:44:45.732Z,21.98
2022-08-27T17:47:13.356Z,21.94
2022-08-27T17:49:41.966Z,21.92
2022-08-27T17:52:10.876Z,21.89
2022-08-27T17:54:38.854Z,21.86
2022-08-27T17:57:07.135Z,21.82
2022-08-27T17:59:35.267Z,21.77
2022-08-27T18:02:03.053Z,21.73
2022-08-27T18:04:30.792Z,21.70
2022-08-27T18:06:58.882Z,21.67
2022-08-27T18:09:26.622Z,21.66
2022-08-27T18:11:54.415Z,21.63
2022-08-27T18:14:24.303Z,21.61
2022-08-27T18:16:52.462Z,21.60
2022-08-27T18:19:20.285Z,21.59
2022-08-27T18:21:48.014Z,21.55
2022-08-27T18:24:15.769Z,21.52
2022-08-27T18:26:43.803Z,21.49
2022-08-27T18:29:11.541Z,21.45
2022-08-27T18:31:39.171Z,21.41
2022-08-27T18:34:06.892Z,21.36
2022-08-27T18:36:35.922Z,21.35
2022-08-27T18:39:03.708Z,21.32
2022-08-27T18:41:31.406Z,21.30
2022-08-27T18:44:00.179Z,21.28
2022-08-27T18:46:27.961Z,21.26
2022-08-27T18:48:55.702Z,21.24
2022-08-27T18:51:23.687Z,21.21
2022-08-27T18:53:51.453Z,21.21
2022-08-27T18:56:19.645Z,21.19
2022-08-27T18:58:47.301Z,21.18
2022-08-27T19:01:15.390Z,21.15
2022-08-27T19:03:43.286Z,21.14
2022-08-27T19:06:11.130Z,21.12
2022-08-27T19:08:39.798Z,21.10
2022-08-27T19:11:07.489Z,21.08
2022-08-27T19:13:35.155Z,21.06
2022-08-27T19:16:02.987Z,21.04
2022-08-27T19:18:31.068Z,21.04
2022-08-27T19:20:58.810Z,21.03
2022-08-27T19:23:26.576Z,21.02
2022-08-27T19:25:54.247Z,20.99
2022-08-27T19:28:22.440Z,20.98
2022-08-27T19:30:50.145Z,20.96
2022-08-27T19:33:17.837Z,20.94
2022-08-27T19:35:45.616Z,20.93
2022-08-27T19:38:13.422Z,20.92
2022-08-27T19:40:41.646Z,20.91
2022-08-27T19:43:09.305Z,20.91
2022-08-27T19:45:40.474Z,20.90
2022-08-27T19:48:08.311Z,20.88
2022-08-27T19:50:36.462Z,20.88
2022-08-27T19:53:04.197Z,20.88
2022-08-27T19:55:31.892Z,20.86
2022-08-27T19:57:59.662Z,20.85
2022-08-27T20:00:28.051Z,20.84
2022-08-27T20:02:56.233Z,20.82
2022-08-27T20:05:24.105Z,20.81
2022-08-27T20:07:51.868Z,20.78
2022-08-27T20:10:19.959Z,20.77
2022-08-27T20:12:49.439Z,20.75
2022-08-27T20:15:17.227Z,20.74
2022-08-27T20:17:45.624Z,20.72
2022-08-27T20:20:13.727Z,20.71
2022-08-27T20:22:41.363Z,20.71
2022-08-27T20:25:09.673Z,20.70
2022-08-27T20:27:37.399Z,20.69
2022-08-27T20:30:05.666Z,20.67
2022-08-27T20:32:34.427Z,20.67
2022-08-27T20:35:02.090Z,20.66
2022-08-27T20:37:29.723Z,20.66
2022-08-27T20:39:58.212Z,20.66
2022-08-27T20:42:25.892Z,20.65
2022-08-27T20:44:54.578Z,20.65
2022-08-27T20:47:22.243Z,20.63
2022-08-27T20:49:50.383Z,20.61
2022-08-27T20:52:19.297Z,20.61
2022-08-27T20:54:47.009Z,20.59
2022-08-27T20:57:14.670Z,20.59
2022-08-27T20:59:59.991Z,20.57
2022-08-27T21:02:27.786Z,20.56
2022-08-27T21:04:55.533Z,20.53
2022-08-27T21:07:23.216Z,20.51
2022-08-27T21:09:55.984Z,20.51
2022-08-27T21:12:25.198Z,20.49
2022-08-27T21:14:54.933Z,20.47
2022-08-27T21:17:24.578Z,20.46
2022-08-27T21:19:52.827Z,20.45
2022-08-27T21:22:20.524Z,20.43
2022-08-27T21:24:48.442Z,20.42
2022-08-27T21:27:16.238Z,20.41
2022-08-27T21:29:45.258Z,20.41
2022-08-27T21:32:13.024Z,20.40
2022-08-27T21:34:41.867Z,20.38
2022-08-27T21:37:09.545Z,20.39
2022-08-27T21:39:38.501Z,20.39
2022-08-27T21:42:06.208Z,20.40
2022-08-27T21:44:34.444Z,20.41
2022-08-27T21:47:03.907Z,20.39
2022-08-27T21:49:32.737Z,20.38
2022-08-27T21:52:00.481Z,20.36
2022-08-27T21:54:28.241Z,20.34
2022-08-27T21:56:55.868Z,20.32
2022-08-27T21:59:26.405Z,20.30
2022-08-27T22:02:00.551Z,20.30
2022-08-27T22:04:29.844Z,20.28
2022-08-27T22:06:59.719Z,20.26
2022-08-27T22:09:27.778Z,20.24
2022-08-27T22:11:55.464Z,20.23
2022-08-27T22:14:23.155Z,20.22
2022-08-27T22:16:50.878Z,20.21
2022-08-27T22:19:18.975Z,20.19
2022-08-27T22:21:46.687Z,20.19
2022-08-27T22:24:14.474Z,20.18
2022-08-27T22:26:42.335Z,20.15
2022-08-27T22:29:10.434Z,20.16
2022-08-27T22:31:38.536Z,20.14
2022-08-27T22:34:06.369Z,20.12
2022-08-27T22:36:34.030Z,20.08
2022-08-27T22:39:04.062Z,20.08
2022-08-27T22:41:32.488Z,20.05
2022-08-27T22:44:00.398Z,20.04
2022-08-27T22:46:28.126Z,20.03
2022-08-27T22:48:57.297Z,19.99
2022-08-27T22:51:25.026Z,19.96
2022-08-27T22:53:52.649Z,19.93
2022-08-27T22:56:20.493Z,19.91
2022-08-27T22:58:49.528Z,19.89
2022-08-27T23:01:17.347Z,19.87
2022-08-27T23:03:45.103Z,19.84
2022-08-27T23:06:12.881Z,19.83
2022-08-27T23:08:41.012Z,19.81
2022-08-27T23:11:08.662Z,19.81
2022-08-27T23:13:36.376Z,19.80
2022-08-27T23:16:04.101Z,19.79
2022-08-27T23:18:32.474Z,19.76
2022-08-27T23:21:00.173Z,19.73
2022-08-27T23:23:30.685Z,19.72
2022-08-27T23:26:16.124Z,19.70
2022-08-27T23:28:44.543Z,19.67
2022-08-27T23:31:12.319Z,19.64
2022-08-27T23:33:40.066Z,19.61
2022-08-27T23:36:07.950Z,19.57
2022-08-27T23:38:35.641Z,19.57
2022-08-27T23:41:03.714Z,19.55
2022-08-27T23:43:31.455Z,19.53
2022-08-27T23:45:59.172Z,19.52
2022-08-27T23:48:26.963Z,19.50
2022-08-27T23:50:54.985Z,19.49
2022-08-27T23:53:22.656Z,19.47
2022-08-27T23:55:50.349Z,19.43
2022-08-27T23:58:18.031Z,19.40
